LYBE/BEG METAR and TAF weather

Enter ICAO airport designator
Station Type Date Time Source
LYBE METAR 2018/06/25 02:00 UTC NOAA

LYBE 250200Z 18003KT CAVOK 12/10 Q1017 NOSIG


Station Type Date Time Source
LYBE Decoded METAR 2018/06/25 02:00 UTC NOAA

Beograd / Surcin, Serbia and Montenegro (LYBE) 44-49N 020-17E 99M
Jun 24, 2018 - 10:00 PM EDT / 2018.06.25 0200 UTC
Wind: from the S (180 degrees) at 3 MPH (3 KT):0
Visibility: greater than 7 mile(s):0
Temperature: 53 F (12 C)
Dew Point: 50 F (10 C)
Relative Humidity: 87%
Pressure (altimeter): 30.03 in. Hg (1017 hPa)
ob: LYBE 250200Z 18003KT CAVOK 12/10 Q1017 NOSIG
cycle: 2

Station Type Date Time Source
LYBE TAF 2018/06/24 18:21 UTC NOAA

TAF LYBE 241700Z 2418/2518 35006KT CAVOK TX23/2513Z TN12/2503Z


Example: see airport list